createdAt,value
2022-10-28T00:04:56.869Z,13.59
2022-10-28T00:09:59.705Z,13.22
2022-10-28T00:15:03.816Z,12.92
2022-10-28T00:20:07.258Z,13.80
2022-10-28T00:25:10.793Z,16.60
2022-10-28T00:30:13.736Z,16.10
2022-10-28T00:35:16.686Z,14.85
2022-10-28T00:40:19.511Z,14.14
2022-10-28T00:45:22.710Z,13.62
2022-10-28T00:50:45.294Z,13.19
2022-10-28T00:55:49.710Z,12.81
2022-10-28T01:00:53.197Z,12.49
2022-10-28T01:05:57.623Z,12.24
2022-10-28T01:11:13.615Z,13.22
2022-10-28T01:16:30.221Z,16.25
2022-10-28T01:21:35.865Z,16.19
2022-10-28T01:27:01.061Z,14.77
2022-10-28T01:32:48.639Z,13.91
2022-10-28T01:37:57.170Z,13.23
2022-10-28T01:43:22.351Z,12.74
2022-10-28T01:48:48.077Z,12.32
2022-10-28T01:53:55.415Z,11.97
2022-10-28T01:59:01.932Z,11.72
2022-10-28T02:04:04.899Z,12.72
2022-10-28T02:09:19.639Z,15.74
2022-10-28T02:14:46.679Z,15.75
2022-10-28T02:20:00.622Z,14.22
2022-10-28T02:25:17.001Z,13.41
2022-10-28T02:30:33.494Z,12.81
2022-10-28T02:35:45.425Z,12.33
2022-10-28T02:46:04.070Z,11.66
2022-10-28T02:51:12.148Z,11.40
2022-10-28T02:56:17.443Z,11.19
2022-10-28T03:01:20.986Z,12.31
2022-10-28T03:11:28.852Z,15.92
2022-10-28T03:16:31.911Z,14.34
2022-10-28T03:21:34.941Z,13.43
2022-10-28T03:26:37.789Z,12.80
2022-10-28T03:31:40.792Z,12.31
2022-10-28T03:36:43.886Z,11.94
2022-10-28T03:41:46.820Z,11.65
2022-10-28T03:46:49.668Z,11.37
2022-10-28T03:51:52.612Z,11.16
2022-10-28T03:56:55.457Z,12.37
2022-10-28T04:01:58.689Z,15.40
2022-10-28T04:07:01.789Z,15.43
2022-10-28T04:17:14.050Z,13.13
2022-10-28T04:22:16.921Z,12.52
2022-10-28T04:27:19.739Z,12.05
2022-10-28T04:32:23.743Z,11.67
2022-10-28T04:37:27.130Z,11.35
2022-10-28T04:42:31.802Z,11.10
2022-10-28T04:47:35.427Z,12.12
2022-10-28T04:52:39.434Z,15.08
2022-10-28T04:57:42.504Z,15.48
2022-10-28T05:02:46.196Z,13.94
2022-10-28T05:07:50.271Z,13.05
2022-10-28T05:12:54.319Z,12.48
2022-10-28T05:17:58.274Z,12.00
2022-10-28T05:23:01.979Z,11.59
2022-10-28T05:28:05.975Z,11.26
2022-10-28T05:33:11.647Z,10.96
2022-10-28T05:38:14.880Z,10.71
2022-10-28T05:43:18.530Z,10.54
2022-10-28T05:48:22.144Z,11.70
2022-10-28T05:53:25.413Z,14.82
2022-10-28T05:58:28.739Z,15.52
2022-10-28T06:03:33.059Z,14.01
2022-10-28T06:08:36.136Z,13.11
2022-10-28T06:13:39.481Z,12.56
2022-10-28T06:18:44.213Z,12.16
2022-10-28T06:23:47.742Z,11.80
2022-10-28T06:28:51.247Z,11.50
2022-10-28T06:33:56.481Z,11.28
2022-10-28T06:39:00.496Z,12.30
2022-10-28T06:44:05.092Z,15.30
2022-10-28T06:49:10.419Z,15.98
2022-10-28T06:54:14.280Z,14.54
2022-10-28T06:59:18.406Z,13.69
2022-10-28T07:04:22.556Z,13.17
2022-10-28T07:09:26.615Z,12.79
2022-10-28T07:14:31.254Z,12.50
2022-10-28T07:19:35.025Z,12.31
2022-10-28T07:24:39.502Z,13.38
2022-10-28T07:29:43.179Z,16.36
2022-10-28T07:34:48.172Z,17.22
2022-10-28T07:39:51.947Z,15.98
2022-10-28T07:44:56.964Z,15.30
2022-10-28T07:49:59.868Z,14.95
2022-10-28T07:55:08.630Z,14.70
2022-10-28T08:00:14.877Z,15.64
2022-10-28T08:05:19.902Z,18.45
2022-10-28T08:10:23.811Z,18.65
2022-10-28T08:15:29.965Z,17.43
2022-10-28T08:20:33.553Z,16.77
2022-10-28T08:25:37.752Z,16.33
2022-10-28T08:30:56.665Z,15.99
2022-10-28T08:36:00.911Z,15.78
2022-10-28T08:41:15.398Z,16.85
2022-10-28T08:46:33.420Z,19.35
2022-10-28T08:51:54.185Z,18.51
2022-10-28T08:57:01.743Z,17.56
2022-10-28T09:02:26.327Z,17.15
2022-10-28T09:07:29.389Z,16.90
2022-10-28T09:12:50.720Z,16.73
2022-10-28T09:17:58.919Z,16.59
2022-10-28T09:23:19.265Z,16.49
2022-10-28T09:28:28.634Z,17.66
2022-10-28T09:33:35.580Z,20.49
2022-10-28T09:38:39.991Z,20.25
2022-10-28T09:43:50.623Z,19.27
2022-10-28T09:48:58.584Z,18.76
2022-10-28T09:54:02.913Z,18.46
2022-10-28T09:59:07.292Z,18.23
2022-10-28T10:04:22.630Z,18.08
2022-10-28T10:09:33.021Z,17.97
2022-10-28T10:14:49.349Z,17.90
2022-10-28T10:20:01.610Z,17.93
2022-10-28T10:25:31.220Z,18.00
2022-10-28T10:30:39.270Z,18.07
2022-10-28T10:35:43.239Z,18.21
2022-10-28T10:40:51.449Z,18.36
2022-10-28T10:46:03.919Z,18.48
2022-10-28T10:51:23.595Z,18.59
2022-10-28T10:56:30.465Z,18.68
2022-10-28T11:01:39.297Z,18.74
2022-10-28T11:06:49.977Z,18.83
2022-10-28T11:11:57.369Z,18.95
2022-10-28T11:17:02.938Z,19.04
2022-10-28T11:22:26.477Z,19.08
2022-10-28T11:27:41.884Z,19.12
2022-10-28T11:33:24.670Z,19.15
2022-10-28T11:38:48.194Z,19.19
2022-10-28T11:44:00.892Z,19.25
2022-10-28T11:49:45.952Z,19.35
2022-10-28T11:54:55.621Z,19.52
2022-10-28T12:00:47.066Z,19.67
2022-10-28T12:06:23.343Z,19.85
2022-10-28T12:11:36.757Z,20.03
2022-10-28T12:16:54.534Z,20.21
2022-10-28T12:22:34.358Z,20.33
2022-10-28T12:27:43.873Z,20.37
2022-10-28T12:32:52.692Z,20.40
2022-10-28T12:38:15.997Z,20.48
2022-10-28T12:43:29.668Z,20.58
2022-10-28T12:48:46.617Z,20.66
2022-10-28T12:53:56.462Z,20.70
2022-10-28T12:59:24.377Z,20.73
2022-10-28T13:04:28.800Z,20.72
2022-10-28T13:10:11.473Z,20.71
2022-10-28T13:15:26.129Z,20.81
2022-10-28T13:21:14.922Z,20.98
2022-10-28T13:26:18.405Z,21.07
2022-10-28T13:31:21.734Z,21.07
2022-10-28T13:36:33.006Z,21.04
2022-10-28T13:41:44.786Z,20.99
2022-10-28T13:47:00.714Z,20.94
2022-10-28T13:52:11.421Z,20.89
2022-10-28T13:57:21.171Z,20.86
2022-10-28T14:02:36.142Z,20.84
2022-10-28T14:08:00.192Z,20.79
2022-10-28T14:13:22.084Z,20.75
2022-10-28T14:31:14.883Z,20.62
2022-10-28T14:36:18.673Z,20.59
2022-10-28T14:41:59.661Z,20.56
2022-10-28T14:47:27.627Z,20.53
2022-10-28T14:52:36.750Z,20.50
2022-10-28T14:57:40.451Z,20.47
2022-10-28T15:02:46.540Z,20.43
2022-10-28T15:07:50.641Z,20.39
2022-10-28T15:12:56.669Z,20.35
2022-10-28T15:18:03.125Z,20.30
2022-10-28T15:23:14.378Z,20.25
2022-10-28T15:28:17.556Z,20.21
2022-10-28T15:33:28.681Z,20.18
2022-10-28T15:38:45.904Z,20.14
2022-10-28T15:44:22.755Z,20.06
2022-10-28T15:49:41.065Z,19.95
2022-10-28T15:54:58.648Z,19.83
2022-10-28T16:00:24.130Z,19.70
2022-10-28T16:05:33.413Z,19.56
2022-10-28T16:10:49.149Z,19.48
2022-10-28T16:16:13.520Z,19.40
2022-10-28T16:21:23.148Z,19.33
2022-10-28T16:26:30.609Z,19.29
2022-10-28T16:31:42.531Z,19.21
2022-10-28T16:36:45.882Z,19.07
2022-10-28T16:41:50.162Z,19.96
2022-10-28T16:46:53.670Z,22.64
2022-10-28T16:51:59.610Z,22.86
2022-10-28T16:57:14.198Z,21.71
2022-10-28T17:02:36.498Z,21.05
2022-10-28T17:07:43.042Z,20.57
2022-10-28T17:12:50.973Z,20.20
2022-10-28T17:17:54.584Z,19.88
2022-10-28T17:23:23.239Z,19.62
2022-10-28T17:28:40.747Z,19.39
2022-10-28T17:34:05.035Z,19.21
2022-10-28T17:39:21.921Z,19.03
2022-10-28T17:44:28.712Z,20.01
2022-10-28T17:49:34.916Z,22.56
2022-10-28T17:54:38.603Z,22.57
2022-10-28T17:59:42.299Z,21.34
2022-10-28T18:04:45.204Z,20.65
2022-10-28T18:09:48.745Z,20.17
2022-10-28T18:14:52.230Z,19.73
2022-10-28T18:19:58.423Z,19.37
2022-10-28T18:25:05.632Z,19.05
2022-10-28T18:30:10.834Z,18.78
2022-10-28T18:35:14.504Z,19.61
2022-10-28T18:40:18.407Z,22.16
2022-10-28T18:45:23.026Z,22.26
2022-10-28T18:50:26.740Z,20.90
2022-10-28T18:55:30.429Z,20.09
2022-10-28T19:00:35.287Z,19.47
2022-10-28T19:05:39.248Z,19.04
2022-10-28T19:10:43.583Z,18.72
2022-10-28T19:15:47.796Z,18.43
2022-10-28T19:20:54.807Z,19.30
2022-10-28T19:26:00.276Z,21.94
2022-10-28T19:31:05.854Z,21.83
2022-10-28T19:36:24.131Z,20.50
2022-10-28T19:41:30.300Z,19.78
2022-10-28T19:46:35.566Z,19.28
2022-10-28T19:51:40.793Z,18.83
2022-10-28T19:56:45.540Z,18.43
2022-10-28T20:01:50.818Z,18.07
2022-10-28T20:06:55.013Z,18.89
2022-10-28T20:11:58.614Z,21.37
2022-10-28T20:17:06.407Z,21.47
2022-10-28T20:22:12.529Z,20.06
2022-10-28T20:27:15.556Z,19.22
2022-10-28T20:32:23.282Z,18.61
2022-10-28T20:37:26.242Z,18.13
2022-10-28T20:42:30.284Z,17.71
2022-10-28T20:47:34.102Z,18.50
2022-10-28T20:52:39.720Z,21.04
2022-10-28T20:57:43.933Z,21.07
2022-10-28T21:02:47.953Z,19.55
2022-10-28T21:07:52.547Z,18.66
2022-10-28T21:12:56.308Z,18.04
2022-10-28T21:18:00.626Z,17.55
2022-10-28T21:23:06.888Z,18.21
2022-10-28T21:28:10.195Z,20.85
2022-10-28T21:33:14.504Z,20.59
2022-10-28T21:38:18.193Z,19.13
2022-10-28T21:43:22.195Z,18.22
2022-10-28T21:48:28.748Z,17.60
2022-10-28T21:53:34.273Z,18.18
2022-10-28T21:58:39.007Z,20.67
2022-10-28T22:03:42.512Z,20.04
2022-10-28T22:08:47.909Z,18.73
2022-10-28T22:14:04.204Z,17.99
2022-10-28T22:19:11.314Z,17.44
2022-10-28T22:24:16.057Z,17.00
2022-10-28T22:29:19.752Z,17.88
2022-10-28T22:34:23.559Z,20.67
2022-10-28T22:39:26.613Z,20.18
2022-10-28T22:44:30.523Z,18.76
2022-10-28T22:49:35.323Z,17.95
2022-10-28T22:54:39.180Z,17.36
2022-10-28T22:59:42.554Z,16.87
2022-10-28T23:04:45.862Z,16.47
2022-10-28T23:09:49.016Z,17.49
2022-10-28T23:14:52.563Z,20.38
2022-10-28T23:19:55.619Z,20.10
2022-10-28T23:24:59.238Z,18.60
2022-10-28T23:30:02.696Z,17.74
2022-10-28T23:35:08.536Z,17.14
2022-10-28T23:40:13.063Z,16.64
2022-10-28T23:45:16.795Z,17.38
2022-10-28T23:50:19.781Z,20.07
2022-10-28T23:55:23.065Z,19.16
